sensor_id;sensor_type;location;lat;lon;timestamp;pressure;altitude;pressure_sealevel;temperature;humidity
17936;BME280;9093;52.062;4.508;2023-02-18T00:02:04;102529.13;;;10.86;80.44
17936;BME280;9093;52.062;4.508;2023-02-18T00:04:44;102518.44;;;10.86;80.78
17936;BME280;9093;52.062;4.508;2023-02-18T00:07:25;102520.22;;;10.87;80.63
17936;BME280;9093;52.062;4.508;2023-02-18T00:10:08;102519.34;;;10.86;80.48
17936;BME280;9093;52.062;4.508;2023-02-18T00:12:50;102511.34;;;10.85;80.54
17936;BME280;9093;52.062;4.508;2023-02-18T00:15:30;102514.03;;;10.85;80.61
17936;BME280;9093;52.062;4.508;2023-02-18T00:18:10;102503.28;;;10.86;80.67
17936;BME280;9093;52.062;4.508;2023-02-18T00:20:50;102509.53;;;10.87;80.77
17936;BME280;9093;52.062;4.508;2023-02-18T00:23:31;102505.09;;;10.86;80.79
17936;BME280;9093;52.062;4.508;2023-02-18T00:26:14;102506.84;;;10.87;80.66
17936;BME280;9093;52.062;4.508;2023-02-18T00:28:55;102488.19;;;10.85;80.45
17936;BME280;9093;52.062;4.508;2023-02-18T00:31:36;102487.28;;;10.85;80.69
17936;BME280;9093;52.062;4.508;2023-02-18T00:34:18;102493.56;;;10.84;80.68
17936;BME280;9093;52.062;4.508;2023-02-18T00:36:59;102498.91;;;10.84;80.62
17936;BME280;9093;52.062;4.508;2023-02-18T00:39:39;102490.03;;;10.82;80.73
17936;BME280;9093;52.062;4.508;2023-02-18T00:42:20;102481.22;;;10.80;80.76
17936;BME280;9093;52.062;4.508;2023-02-18T00:45:00;102483.03;;;10.78;80.90
17936;BME280;9093;52.062;4.508;2023-02-18T00:47:40;102482.16;;;10.77;80.86
17936;BME280;9093;52.062;4.508;2023-02-18T00:50:21;102480.44;;;10.75;80.77
17936;BME280;9093;52.062;4.508;2023-02-18T00:53:01;102475.94;;;10.77;80.72
17936;BME280;9093;52.062;4.508;2023-02-18T00:55:43;102470.59;;;10.77;81.01
17936;BME280;9093;52.062;4.508;2023-02-18T00:58:24;102479.53;;;10.76;80.84
17936;BME280;9093;52.062;4.508;2023-02-18T01:01:06;102479.53;;;10.76;80.85
17936;BME280;9093;52.062;4.508;2023-02-18T01:03:47;102467.94;;;10.77;80.96
17936;BME280;9093;52.062;4.508;2023-02-18T01:06:27;102475.91;;;10.78;80.84
17936;BME280;9093;52.062;4.508;2023-02-18T01:09:07;102464.38;;;10.76;80.81
17936;BME280;9093;52.062;4.508;2023-02-18T01:11:49;102465.25;;;10.77;80.92
17936;BME280;9093;52.062;4.508;2023-02-18T01:14:29;102468.84;;;10.76;80.95
17936;BME280;9093;52.062;4.508;2023-02-18T01:17:10;102467.09;;;10.75;81.00
17936;BME280;9093;52.062;4.508;2023-02-18T01:19:50;102458.16;;;10.76;81.00
17936;BME280;9093;52.062;4.508;2023-02-18T01:22:30;102453.72;;;10.75;80.87
17936;BME280;9093;52.062;4.508;2023-02-18T01:25:11;102437.63;;;10.78;81.05
17936;BME280;9093;52.062;4.508;2023-02-18T01:27:54;102440.28;;;10.78;81.09
17936;BME280;9093;52.062;4.508;2023-02-18T01:30:34;102446.72;;;10.71;81.10
17936;BME280;9093;52.062;4.508;2023-02-18T01:33:15;102447.53;;;10.74;81.14
17936;BME280;9093;52.062;4.508;2023-02-18T01:35:55;102449.34;;;10.74;81.14
17936;BME280;9093;52.062;4.508;2023-02-18T01:38:35;102450.13;;;10.76;81.10
17936;BME280;9093;52.062;4.508;2023-02-18T01:41:16;102440.38;;;10.75;81.05
17936;BME280;9093;52.062;4.508;2023-02-18T01:44:16;102435.09;;;10.73;81.21
17936;BME280;9093;52.062;4.508;2023-02-18T01:46:57;102429.69;;;10.75;81.16
17936;BME280;9093;52.062;4.508;2023-02-18T01:49:37;102430.56;;;10.75;81.24
17936;BME280;9093;52.062;4.508;2023-02-18T01:52:22;102425.22;;;10.75;81.28
17936;BME280;9093;52.062;4.508;2023-02-18T01:55:04;102421.78;;;10.72;81.22
17936;BME280;9093;52.062;4.508;2023-02-18T01:57:45;102418.19;;;10.73;81.35
17936;BME280;9093;52.062;4.508;2023-02-18T02:00:25;102419.09;;;10.72;81.16
17936;BME280;9093;52.062;4.508;2023-02-18T02:03:06;102417.34;;;10.71;81.42
17936;BME280;9093;52.062;4.508;2023-02-18T02:05:46;102404.91;;;10.70;81.19
17936;BME280;9093;52.062;4.508;2023-02-18T02:08:28;102395.09;;;10.70;81.33
17936;BME280;9093;52.062;4.508;2023-02-18T02:11:22;102387.13;;;10.69;81.43
17936;BME280;9093;52.062;4.508;2023-02-18T02:17:27;102371.09;;;10.69;81.62
17936;BME280;9093;52.062;4.508;2023-02-18T02:26:24;102355.06;;;10.69;81.61
17936;BME280;9093;52.062;4.508;2023-02-18T02:37:40;102320.22;;;10.73;81.33
17936;BME280;9093;52.062;4.508;2023-02-18T02:40:45;102317.47;;;10.75;81.33
17936;BME280;9093;52.062;4.508;2023-02-18T02:43:33;102307.66;;;10.75;81.34
17936;BME280;9093;52.062;4.508;2023-02-18T02:46:28;102301.44;;;10.75;81.36
17936;BME280;9093;52.062;4.508;2023-02-18T02:49:23;102294.38;;;10.74;81.34
17936;BME280;9093;52.062;4.508;2023-02-18T02:52:15;102299.81;;;10.71;81.42
17936;BME280;9093;52.062;4.508;2023-02-18T02:54:58;102296.28;;;10.69;81.43
17936;BME280;9093;52.062;4.508;2023-02-18T02:57:44;102304.28;;;10.70;81.66
17936;BME280;9093;52.062;4.508;2023-02-18T03:10:13;102291.53;;;10.51;81.69
17936;BME280;9093;52.062;4.508;2023-02-18T03:18:51;102272.03;;;10.48;81.66
17936;BME280;9093;52.062;4.508;2023-02-18T03:21:44;102269.41;;;10.47;82.15
17936;BME280;9093;52.062;4.508;2023-02-18T03:24:31;102262.25;;;10.47;81.83
17936;BME280;9093;52.062;4.508;2023-02-18T03:27:37;102249.81;;;10.46;81.83
17936;BME280;9093;52.062;4.508;2023-02-18T03:30:39;102232.97;;;10.44;81.91
17936;BME280;9093;52.062;4.508;2023-02-18T03:33:30;102237.38;;;10.45;81.83
17936;BME280;9093;52.062;4.508;2023-02-18T03:36:12;102238.28;;;10.46;81.84
17936;BME280;9093;52.062;4.508;2023-02-18T03:38:58;102231.28;;;10.42;82.02
17936;BME280;9093;52.062;4.508;2023-02-18T03:41:39;102234.75;;;10.44;81.93
17936;BME280;9093;52.062;4.508;2023-02-18T03:44:20;102224.03;;;10.45;81.99
17936;BME280;9093;52.062;4.508;2023-02-18T03:47:01;102224.03;;;10.45;82.24
17936;BME280;9093;52.062;4.508;2023-02-18T03:49:44;102216.88;;;10.47;82.13
17936;BME280;9093;52.062;4.508;2023-02-18T03:52:24;102222.16;;;10.49;81.95
17936;BME280;9093;52.062;4.508;2023-02-18T03:55:05;102218.50;;;10.52;82.14
17936;BME280;9093;52.062;4.508;2023-02-18T03:57:46;102225.59;;;10.53;82.03
17936;BME280;9093;52.062;4.508;2023-02-18T04:00:26;102230.84;;;10.56;82.22
17936;BME280;9093;52.062;4.508;2023-02-18T04:03:07;102220.06;;;10.59;82.13
17936;BME280;9093;52.062;4.508;2023-02-18T04:05:47;102220.91;;;10.61;82.24
17936;BME280;9093;52.062;4.508;2023-02-18T04:08:27;102218.22;;;10.61;82.26
17936;BME280;9093;52.062;4.508;2023-02-18T04:11:08;102211.88;;;10.63;82.21
17936;BME280;9093;52.062;4.508;2023-02-18T04:13:48;102206.50;;;10.65;82.05
17936;BME280;9093;52.062;4.508;2023-02-18T04:16:28;102208.25;;;10.66;82.45
17936;BME280;9093;52.062;4.508;2023-02-18T04:19:14;102186.91;;;10.66;82.43
17936;BME280;9093;52.062;4.508;2023-02-18T04:21:54;102194.78;;;10.69;82.30
17936;BME280;9093;52.062;4.508;2023-02-18T04:24:35;102197.41;;;10.70;82.38
17936;BME280;9093;52.062;4.508;2023-02-18T04:27:15;102195.63;;;10.71;82.41
17936;BME280;9093;52.062;4.508;2023-02-18T04:29:55;102207.16;;;10.73;82.53
17936;BME280;9093;52.062;4.508;2023-02-18T04:32:36;102199.13;;;10.73;82.55
17936;BME280;9093;52.062;4.508;2023-02-18T04:35:16;102188.44;;;10.73;82.54
17936;BME280;9093;52.062;4.508;2023-02-18T04:37:57;102177.78;;;10.71;82.68
17936;BME280;9093;52.062;4.508;2023-02-18T04:40:37;102179.59;;;10.71;82.78
17936;BME280;9093;52.062;4.508;2023-02-18T04:43:17;102157.38;;;10.69;82.79
17936;BME280;9093;52.062;4.508;2023-02-18T04:45:58;102161.00;;;10.68;82.91
17936;BME280;9093;52.062;4.508;2023-02-18T04:48:44;102150.31;;;10.68;82.96
17936;BME280;9093;52.062;4.508;2023-02-18T04:51:24;102169.94;;;10.67;83.12
17936;BME280;9093;52.062;4.508;2023-02-18T04:54:04;102160.13;;;10.67;83.06
17936;BME280;9093;52.062;4.508;2023-02-18T04:56:45;102165.47;;;10.67;83.06
17936;BME280;9093;52.062;4.508;2023-02-18T04:59:28;102160.06;;;10.69;83.12
17936;BME280;9093;52.062;4.508;2023-02-18T05:02:08;102164.50;;;10.70;83.04
17936;BME280;9093;52.062;4.508;2023-02-18T05:04:48;102163.59;;;10.69;83.07
17936;BME280;9093;52.062;4.508;2023-02-18T05:07:29;102159.13;;;10.70;83.21
17936;BME280;9093;52.062;4.508;2023-02-18T05:10:10;102164.41;;;10.73;83.07
17936;BME280;9093;52.062;4.508;2023-02-18T05:12:54;102150.16;;;10.72;83.25
17936;BME280;9093;52.062;4.508;2023-02-18T05:15:37;102151.84;;;10.75;83.32
17936;BME280;9093;52.062;4.508;2023-02-18T05:18:17;102154.47;;;10.76;83.21
17936;BME280;9093;52.062;4.508;2023-02-18T05:20:58;102150.88;;;10.77;83.36
17936;BME280;9093;52.062;4.508;2023-02-18T05:23:38;102145.50;;;10.79;83.40
17936;BME280;9093;52.062;4.508;2023-02-18T05:26:18;102129.41;;;10.80;83.21
17936;BME280;9093;52.062;4.508;2023-02-18T05:28:58;102140.03;;;10.82;83.46
17936;BME280;9093;52.062;4.508;2023-02-18T05:31:39;102136.44;;;10.83;83.40
17936;BME280;9093;52.062;4.508;2023-02-18T05:34:19;102141.72;;;10.84;83.22
17936;BME280;9093;52.062;4.508;2023-02-18T05:36:59;102117.63;;;10.86;83.33
17936;BME280;9093;52.062;4.508;2023-02-18T05:39:40;102117.50;;;10.89;83.28
17936;BME280;9093;52.062;4.508;2023-02-18T05:42:21;102121.03;;;10.91;83.26
17936;BME280;9093;52.062;4.508;2023-02-18T05:45:02;102115.69;;;10.91;83.43
17936;BME280;9093;52.062;4.508;2023-02-18T05:47:43;102123.66;;;10.93;83.47
17936;BME280;9093;52.062;4.508;2023-02-18T05:50:23;102119.06;;;10.96;83.44
17936;BME280;9093;52.062;4.508;2023-02-18T05:53:03;102116.38;;;10.96;83.57
17936;BME280;9093;52.062;4.508;2023-02-18T05:55:44;102114.63;;;10.95;83.40
17936;BME280;9093;52.062;4.508;2023-02-18T05:58:24;102127.06;;;10.96;83.56
17936;BME280;9093;52.062;4.508;2023-02-18T06:01:05;102121.72;;;10.96;83.58
17936;BME280;9093;52.062;4.508;2023-02-18T06:03:48;102112.84;;;10.96;83.51
17936;BME280;9093;52.062;4.508;2023-02-18T06:06:34;102128.00;;;10.95;83.63
17936;BME280;9093;52.062;4.508;2023-02-18T06:09:15;102113.84;;;10.93;83.66
17936;BME280;9093;52.062;4.508;2023-02-18T06:11:55;102128.13;;;10.92;83.92
17936;BME280;9093;52.062;4.508;2023-02-18T06:14:35;102139.72;;;10.91;83.73
17936;BME280;9093;52.062;4.508;2023-02-18T06:17:16;102136.22;;;10.89;83.83
17936;BME280;9093;52.062;4.508;2023-02-18T06:19:57;102128.25;;;10.87;83.88
17936;BME280;9093;52.062;4.508;2023-02-18T06:22:38;102118.50;;;10.86;83.78
17936;BME280;9093;52.062;4.508;2023-02-18T06:25:18;102114.06;;;10.87;83.91
17936;BME280;9093;52.062;4.508;2023-02-18T06:28:02;102114.06;;;10.87;83.83
17936;BME280;9093;52.062;4.508;2023-02-18T06:30:43;102120.34;;;10.84;84.12
17936;BME280;9093;52.062;4.508;2023-02-18T06:33:24;102131.91;;;10.85;83.82
17936;BME280;9093;52.062;4.508;2023-02-18T06:36:07;102112.28;;;10.86;83.85
17936;BME280;9093;52.062;4.508;2023-02-18T06:38:50;102114.13;;;10.84;84.14
17936;BME280;9093;52.062;4.508;2023-02-18T06:41:34;102114.25;;;10.81;84.11
17936;BME280;9093;52.062;4.508;2023-02-18T06:44:15;102122.19;;;10.82;84.02
17936;BME280;9093;52.062;4.508;2023-02-18T06:46:56;102110.63;;;10.82;83.91
17936;BME280;9093;52.062;4.508;2023-02-18T06:49:54;102111.69;;;10.78;83.87
17936;BME280;9093;52.062;4.508;2023-02-18T06:52:34;102125.00;;;10.79;83.90
17936;BME280;9093;52.062;4.508;2023-02-18T06:55:17;102107.22;;;10.78;83.97
17936;BME280;9093;52.062;4.508;2023-02-18T06:57:57;102128.63;;;10.77;84.07
17936;BME280;9093;52.062;4.508;2023-02-18T07:00:38;102107.25;;;10.77;83.92
17936;BME280;9093;52.062;4.508;2023-02-18T07:03:18;102114.41;;;10.76;83.85
17936;BME280;9093;52.062;4.508;2023-02-18T07:05:58;102102.03;;;10.74;83.82
17936;BME280;9093;52.062;4.508;2023-02-18T07:08:39;102091.34;;;10.74;83.99
17936;BME280;9093;52.062;4.508;2023-02-18T07:11:19;102110.97;;;10.73;83.87
17936;BME280;9093;52.062;4.508;2023-02-18T07:13:59;102095.88;;;10.72;83.98
17936;BME280;9093;52.062;4.508;2023-02-18T07:16:40;102105.63;;;10.73;83.98
17936;BME280;9093;52.062;4.508;2023-02-18T07:19:20;102098.53;;;10.72;83.99
17936;BME280;9093;52.062;4.508;2023-02-18T07:22:00;102103.88;;;10.72;83.94
17936;BME280;9093;52.062;4.508;2023-02-18T07:24:41;102103.88;;;10.72;83.79
17936;BME280;9093;52.062;4.508;2023-02-18T07:27:22;102102.13;;;10.71;83.84
17936;BME280;9093;52.062;4.508;2023-02-18T07:30:07;102108.25;;;10.74;83.78
17936;BME280;9093;52.062;4.508;2023-02-18T07:32:48;102106.44;;;10.75;83.75
17936;BME280;9093;52.062;4.508;2023-02-18T07:35:28;102109.09;;;10.75;83.65
17936;BME280;9093;52.062;4.508;2023-02-18T07:38:08;102109.94;;;10.77;83.69
17936;BME280;9093;52.062;4.508;2023-02-18T07:40:49;102102.78;;;10.77;83.75
17936;BME280;9093;52.062;4.508;2023-02-18T07:43:30;102098.38;;;10.76;83.58
17936;BME280;9093;52.062;4.508;2023-02-18T07:46:10;102117.94;;;10.77;83.29
17936;BME280;9093;52.062;4.508;2023-02-18T07:48:51;102110.75;;;10.79;83.31
17936;BME280;9093;52.062;4.508;2023-02-18T07:51:31;102103.66;;;10.78;83.36
17936;BME280;9093;52.062;4.508;2023-02-18T07:54:14;102116.19;;;10.76;83.14
17936;BME280;9093;52.062;4.508;2023-02-18T07:56:55;102101.16;;;10.73;82.77
17936;BME280;9093;52.062;4.508;2023-02-18T07:59:35;102108.25;;;10.74;82.70
17936;BME280;9093;52.062;4.508;2023-02-18T08:02:21;102140.34;;;10.73;82.67
17936;BME280;9093;52.062;4.508;2023-02-18T08:05:01;102110.97;;;10.73;82.57
17936;BME280;9093;52.062;4.508;2023-02-18T08:07:42;102118.94;;;10.74;82.39
17936;BME280;9093;52.062;4.508;2023-02-18T08:10:25;102114.44;;;10.75;82.32
17936;BME280;9093;52.062;4.508;2023-02-18T08:13:05;102118.00;;;10.75;82.08
17936;BME280;9093;52.062;4.508;2023-02-18T08:15:46;102111.84;;;10.73;82.13
17936;BME280;9093;52.062;4.508;2023-02-18T08:18:26;102102.03;;;10.74;82.09
17936;BME280;9093;52.062;4.508;2023-02-18T08:21:17;102103.75;;;10.75;82.25
17936;BME280;9093;52.062;4.508;2023-02-18T08:23:58;102111.84;;;10.73;81.86
17936;BME280;9093;52.062;4.508;2023-02-18T08:26:38;102111.94;;;10.70;81.89
17936;BME280;9093;52.062;4.508;2023-02-18T08:29:19;102103.97;;;10.69;81.81
17936;BME280;9093;52.062;4.508;2023-02-18T08:31:59;102104.84;;;10.69;81.44
17936;BME280;9093;52.062;4.508;2023-02-18T08:34:39;102110.13;;;10.71;81.71
17936;BME280;9093;52.062;4.508;2023-02-18T08:37:20;102109.22;;;10.72;81.83
17936;BME280;9093;52.062;4.508;2023-02-18T08:40:01;102105.50;;;10.76;81.57
17936;BME280;9093;52.062;4.508;2023-02-18T08:42:42;102108.13;;;10.77;81.47
17936;BME280;9093;52.062;4.508;2023-02-18T08:45:22;102108.13;;;10.77;81.32
17936;BME280;9093;52.062;4.508;2023-02-18T08:48:04;102107.16;;;10.80;81.31
17936;BME280;9093;52.062;4.508;2023-02-18T08:50:51;102132.00;;;10.82;81.07
17936;BME280;9093;52.062;4.508;2023-02-18T08:53:31;102149.78;;;10.83;81.13
17936;BME280;9093;52.062;4.508;2023-02-18T08:56:13;102138.13;;;10.85;81.15
17936;BME280;9093;52.062;4.508;2023-02-18T08:58:54;102150.56;;;10.86;80.95
17936;BME280;9093;52.062;4.508;2023-02-18T09:01:34;102144.16;;;10.92;80.82
17936;BME280;9093;52.062;4.508;2023-02-18T09:04:15;102141.53;;;10.91;80.72
17936;BME280;9093;52.062;4.508;2023-02-18T09:06:55;102133.47;;;10.92;80.61
17936;BME280;9093;52.062;4.508;2023-02-18T09:09:36;102161.84;;;10.95;80.52
17936;BME280;9093;52.062;4.508;2023-02-18T09:12:21;102148.44;;;10.96;80.53
17936;BME280;9093;52.062;4.508;2023-02-18T09:15:03;102138.59;;;10.98;80.49
17936;BME280;9093;52.062;4.508;2023-02-18T09:17:44;102149.16;;;11.01;80.48
17936;BME280;9093;52.062;4.508;2023-02-18T09:20:26;102148.19;;;11.04;80.22
17936;BME280;9093;52.062;4.508;2023-02-18T09:23:06;102168.59;;;11.06;80.53
17936;BME280;9093;52.062;4.508;2023-02-18T09:25:52;102175.78;;;11.04;80.28
17936;BME280;9093;52.062;4.508;2023-02-18T09:28:33;102156.03;;;11.08;80.35
17936;BME280;9093;52.062;4.508;2023-02-18T09:31:19;102169.31;;;11.11;80.36
17936;BME280;9093;52.062;4.508;2023-02-18T09:34:01;102163.84;;;11.14;80.26
17936;BME280;9093;52.062;4.508;2023-02-18T09:36:41;102170.91;;;11.17;80.31
17936;BME280;9093;52.062;4.508;2023-02-18T09:39:22;102186.88;;;11.18;80.24
17936;BME280;9093;52.062;4.508;2023-02-18T09:42:17;102174.41;;;11.19;80.38
17936;BME280;9093;52.062;4.508;2023-02-18T09:45:03;102167.94;;;11.24;80.33
17936;BME280;9093;52.062;4.508;2023-02-18T09:47:44;102182.13;;;11.26;80.37
17936;BME280;9093;52.062;4.508;2023-02-18T09:50:29;102202.41;;;11.32;80.31
17936;BME280;9093;52.062;4.508;2023-02-18T09:53:11;102169.34;;;11.35;80.36
17936;BME280;9093;52.062;4.508;2023-02-18T09:55:54;102203.06;;;11.39;80.28
17936;BME280;9093;52.062;4.508;2023-02-18T09:58:35;102217.22;;;11.42;80.21
17936;BME280;9093;52.062;4.508;2023-02-18T10:01:49;102185.13;;;11.42;80.14
17936;BME280;9093;52.062;4.508;2023-02-18T10:04:40;102222.34;;;11.48;79.91
17936;BME280;9093;52.062;4.508;2023-02-18T10:07:30;102185.78;;;11.49;79.96
17936;BME280;9093;52.062;4.508;2023-02-18T10:10:19;102183.00;;;11.52;80.02
17936;BME280;9093;52.062;4.508;2023-02-18T10:13:00;102194.56;;;11.52;80.13
17936;BME280;9093;52.062;4.508;2023-02-18T10:15:42;102188.25;;;11.55;80.02
17936;BME280;9093;52.062;4.508;2023-02-18T10:18:51;102211.38;;;11.56;79.81
17936;BME280;9093;52.062;4.508;2023-02-18T10:21:33;102213.00;;;11.60;80.03
17936;BME280;9093;52.062;4.508;2023-02-18T10:24:40;102207.66;;;11.60;80.00
17936;BME280;9093;52.062;4.508;2023-02-18T10:27:27;102210.94;;;11.68;79.70
17936;BME280;9093;52.062;4.508;2023-02-18T10:33:00;102207.94;;;11.77;79.51
17936;BME280;9093;52.062;4.508;2023-02-18T10:36:00;102226.44;;;11.83;79.46
17936;BME280;9093;52.062;4.508;2023-02-18T10:45:05;102227.81;;;11.95;79.28
17936;BME280;9093;52.062;4.508;2023-02-18T10:47:58;102233.97;;;11.97;79.27
17936;BME280;9093;52.062;4.508;2023-02-18T10:50:44;102221.38;;;12.00;79.12
17936;BME280;9093;52.062;4.508;2023-02-18T10:53:32;102223.94;;;12.02;79.15
17936;BME280;9093;52.062;4.508;2023-02-18T10:56:45;102204.34;;;12.01;79.01
17936;BME280;9093;52.062;4.508;2023-02-18T10:59:31;102202.38;;;12.06;78.96
17936;BME280;9093;52.062;4.508;2023-02-18T11:02:15;102211.28;;;12.07;79.02
17936;BME280;9093;52.062;4.508;2023-02-18T11:05:05;102209.50;;;12.07;78.77
17936;BME280;9093;52.062;4.508;2023-02-18T11:07:52;102228.09;;;12.11;78.76
17936;BME280;9093;52.062;4.508;2023-02-18T11:10:37;102225.38;;;12.12;78.56
17936;BME280;9093;52.062;4.508;2023-02-18T11:13:26;102221.69;;;12.15;78.59
17936;BME280;9093;52.062;4.508;2023-02-18T11:16:12;102225.19;;;12.17;78.42
17936;BME280;9093;52.062;4.508;2023-02-18T11:18:52;102230.53;;;12.17;78.37
17936;BME280;9093;52.062;4.508;2023-02-18T11:21:39;102218.91;;;12.18;78.47
17936;BME280;9093;52.062;4.508;2023-02-18T11:24:20;102237.41;;;12.24;78.50
17936;BME280;9093;52.062;4.508;2023-02-18T11:27:01;102220.38;;;12.26;78.50
17936;BME280;9093;52.062;4.508;2023-02-18T11:29:41;102217.50;;;12.31;78.37
17936;BME280;9093;52.062;4.508;2023-02-18T11:32:26;102217.31;;;12.35;78.26
17936;BME280;9093;52.062;4.508;2023-02-18T11:35:20;102226.22;;;12.36;78.34
17936;BME280;9093;52.062;4.508;2023-02-18T11:38:03;102208.16;;;12.41;78.18
17936;BME280;9093;52.062;4.508;2023-02-18T11:41:01;102227.72;;;12.43;78.10
17936;BME280;9093;52.062;4.508;2023-02-18T11:43:46;102224.13;;;12.44;78.01
17936;BME280;9093;52.062;4.508;2023-02-18T11:46:27;102201.81;;;12.43;78.14
17936;BME280;9093;52.062;4.508;2023-02-18T11:49:22;102210.84;;;12.41;78.04
17936;BME280;9093;52.062;4.508;2023-02-18T11:52:17;102210.72;;;12.44;77.94
17936;BME280;9093;52.062;4.508;2023-02-18T11:57:56;102210.59;;;12.47;77.50
17936;BME280;9093;52.062;4.508;2023-02-18T12:00:44;102213.16;;;12.50;77.63
17936;BME280;9093;52.062;4.508;2023-02-18T12:03:46;102209.31;;;12.57;77.49
17936;BME280;9093;52.062;4.508;2023-02-18T12:06:32;102208.81;;;12.69;77.54
17936;BME280;9093;52.062;4.508;2023-02-18T12:09:29;102214.03;;;12.72;77.36
17936;BME280;9093;52.062;4.508;2023-02-18T12:12:37;102210.16;;;12.79;77.57
17936;BME280;9093;52.062;4.508;2023-02-18T12:15:33;102215.16;;;12.88;77.29
17936;BME280;9093;52.062;4.508;2023-02-18T12:18:31;102195.31;;;12.93;77.22
17936;BME280;9093;52.062;4.508;2023-02-18T12:22:15;102209.28;;;13.01;77.16
17936;BME280;9093;52.062;4.508;2023-02-18T12:27:55;102203.59;;;13.08;76.92
17936;BME280;9093;52.062;4.508;2023-02-18T12:30:47;102204.44;;;13.09;76.93
17936;BME280;9093;52.062;4.508;2023-02-18T12:40:03;102207.44;;;13.23;76.43
17936;BME280;9093;52.062;4.508;2023-02-18T12:49:19;102206.78;;;13.58;76.09
17936;BME280;9093;52.062;4.508;2023-02-18T12:52:30;102209.47;;;13.58;76.22
17936;BME280;9093;52.062;4.508;2023-02-18T12:58:12;102216.63;;;13.58;75.97
17936;BME280;9093;52.062;4.508;2023-02-18T13:13:03;102209.31;;;13.41;75.41
17936;BME280;9093;52.062;4.508;2023-02-18T13:18:34;102214.84;;;13.38;75.16
17936;BME280;9093;52.062;4.508;2023-02-18T13:21:16;102212.22;;;13.37;75.13
17936;BME280;9093;52.062;4.508;2023-02-18T13:24:00;102225.41;;;13.41;75.02
17936;BME280;9093;52.062;4.508;2023-02-18T13:26:44;102209.31;;;13.41;74.84
17936;BME280;9093;52.062;4.508;2023-02-18T13:29:47;102220.88;;;13.43;75.01
17936;BME280;9093;52.062;4.508;2023-02-18T13:32:39;102203.69;;;13.47;74.78
17936;BME280;9093;52.062;4.508;2023-02-18T13:35:59;102227.66;;;13.52;74.82
17936;BME280;9093;52.062;4.508;2023-02-18T13:38:55;102215.88;;;13.54;74.84
17936;BME280;9093;52.062;4.508;2023-02-18T13:41:40;102212.06;;;13.60;74.70
17936;BME280;9093;52.062;4.508;2023-02-18T13:47:01;102209.84;;;13.69;74.73
17936;BME280;9093;52.062;4.508;2023-02-18T13:49:41;102213.34;;;13.72;74.67
17936;BME280;9093;52.062;4.508;2023-02-18T13:52:21;102211.44;;;13.74;74.78
17936;BME280;9093;52.062;4.508;2023-02-18T13:55:02;102216.75;;;13.75;74.61
17936;BME280;9093;52.062;4.508;2023-02-18T13:57:48;102216.53;;;13.80;74.37
17936;BME280;9093;52.062;4.508;2023-02-18T14:00:36;102202.16;;;13.81;74.11
17936;BME280;9093;52.062;4.508;2023-02-18T14:06:32;102214.38;;;13.88;73.94
17936;BME280;9093;52.062;4.508;2023-02-18T14:11:55;102227.53;;;13.94;74.13
17936;BME280;9093;52.062;4.508;2023-02-18T14:14:37;102212.34;;;13.93;73.98
17936;BME280;9093;52.062;4.508;2023-02-18T14:28:03;102221.81;;;14.01;73.57
17936;BME280;9093;52.062;4.508;2023-02-18T14:39:46;102217.59;;;13.96;73.52
17936;BME280;9093;52.062;4.508;2023-02-18T14:48:56;102225.63;;;13.77;73.63
17936;BME280;9093;52.062;4.508;2023-02-18T14:51:41;102228.19;;;13.79;73.65
17936;BME280;9093;52.062;4.508;2023-02-18T14:54:25;102225.69;;;13.76;73.76
17936;BME280;9093;52.062;4.508;2023-02-18T14:57:15;102223.31;;;13.68;73.66
17936;BME280;9093;52.062;4.508;2023-02-18T15:00:00;102231.81;;;13.59;73.78
17936;BME280;9093;52.062;4.508;2023-02-18T15:02:41;102221.41;;;13.51;73.88
17936;BME280;9093;52.062;4.508;2023-02-18T15:05:25;102230.38;;;13.50;73.84
17936;BME280;9093;52.062;4.508;2023-02-18T15:08:14;102241.50;;;13.41;73.73
17936;BME280;9093;52.062;4.508;2023-02-18T15:11:05;102222.06;;;13.36;73.93
17936;BME280;9093;52.062;4.508;2023-02-18T15:13:47;102220.31;;;13.35;73.76
17936;BME280;9093;52.062;4.508;2023-02-18T15:22:17;102230.69;;;13.22;73.77
17936;BME280;9093;52.062;4.508;2023-02-18T15:25:01;102226.34;;;13.20;73.74
17936;BME280;9093;52.062;4.508;2023-02-18T15:27:45;102227.56;;;13.13;73.75
17936;BME280;9093;52.062;4.508;2023-02-18T15:30:28;102220.63;;;13.07;73.79
17936;BME280;9093;52.062;4.508;2023-02-18T15:33:10;102224.44;;;13.02;73.82
17936;BME280;9093;52.062;4.508;2023-02-18T15:36:00;102217.38;;;12.99;73.78
17936;BME280;9093;52.062;4.508;2023-02-18T15:38:40;102223.72;;;12.97;73.87
17936;BME280;9093;52.062;4.508;2023-02-18T15:41:22;102217.56;;;12.95;74.01
17936;BME280;9093;52.062;4.508;2023-02-18T15:44:04;102218.56;;;12.92;73.80
17936;BME280;9093;52.062;4.508;2023-02-18T15:46:47;102224.13;;;12.87;73.85
17936;BME280;9093;52.062;4.508;2023-02-18T15:49:28;102216.34;;;12.81;74.03
17936;BME280;9093;52.062;4.508;2023-02-18T15:52:09;102214.84;;;12.74;74.01
17936;BME280;9093;52.062;4.508;2023-02-18T15:54:50;102236.47;;;12.70;74.15
17936;BME280;9093;52.062;4.508;2023-02-18T15:57:31;102233.84;;;12.68;74.12
17936;BME280;9093;52.062;4.508;2023-02-18T16:00:28;102229.56;;;12.64;74.09
17936;BME280;9093;52.062;4.508;2023-02-18T16:03:43;102232.34;;;12.61;74.12
17936;BME280;9093;52.062;4.508;2023-02-18T16:06:25;102230.03;;;12.52;74.20
17936;BME280;9093;52.062;4.508;2023-02-18T16:09:23;102227.59;;;12.46;74.26
17936;BME280;9093;52.062;4.508;2023-02-18T16:12:18;102227.59;;;12.46;74.34
17936;BME280;9093;52.062;4.508;2023-02-18T16:15:01;102228.59;;;12.43;74.47
17936;BME280;9093;52.062;4.508;2023-02-18T16:17:43;102230.50;;;12.40;74.37
17936;BME280;9093;52.062;4.508;2023-02-18T16:20:42;102227.91;;;12.38;74.33
17936;BME280;9093;52.062;4.508;2023-02-18T16:23:41;102232.41;;;12.38;74.22
17936;BME280;9093;52.062;4.508;2023-02-18T16:29:13;102233.56;;;12.31;74.36
17936;BME280;9093;52.062;4.508;2023-02-18T16:31:54;102223.19;;;12.22;74.47
17936;BME280;9093;52.062;4.508;2023-02-18T16:34:35;102217.19;;;12.15;74.49